Maersk_kyrenia — VRGM8 — position and weather

sailwx.info

Track history (hours):
 
Tides and Currents Weather Stations Pressure Air Temp Water Temp Dewpoint Dewpoint Depression Visibility Wind Speed Wind Dir Waves Ship Positions

Maersk_kyrenia

Last reported at 2014-Oct-25 16:34 UTC. Time now 2014-Oct-25 17:30 UTC.
Position N 51°57' E 001°18'.

Length 300 m; draft 13.6 m.

MMSI: 477733600.

Date/timePositionNaut miles runAvg speedWind from/ knotsBaromVisibWave heightAir tempDewpointWater temp
2014-Oct-25 16:34N 51°57' E 001°18'5 5.4
2014-Oct-25 15:33N 51°56' E 001°26'9 9.0
2014-Oct-25 14:33N 51°52' E 001°40'7 6.7
2014-Oct-25 13:33N 51°48' E 001°48'1010.2
2014-Oct-25 12:33N 51°38' E 001°51'1010.0
2014-Oct-25 11:33N 51°29' E 001°55'1313.0
2014-Oct-25 10:34N 51°18' E 002°08'7 7.4
2014-Oct-25 09:33N 51°13' E 001°59'1110.9
2014-Oct-25 08:33N 51°07' E 001°45'1010.2
2014-Oct-25 07:33N 50°60' E 001°33'1111.3
2014-Oct-25 06:33N 50°50' E 001°25'4213.0
2014-Oct-25 03:21N 50°25' E 000°32'37915.0
2014-Oct-24 02:00N 46°42' W 007°12'35415.0 220 / 81020.0 5.4 0.518.014.618.0
2014-Oct-23 02:22N 41°06' W 009°50'1315.1
2014-Oct-23 01:32N 40°54' W 009°50'1714.8
2014-Oct-23 00:23N 40°37' W 009°50'8714.9
2014-Oct-22 18:33N 39°10' W 009°51'1514.9
2014-Oct-22 17:33N 38°55' W 009°51'1514.5
2014-Oct-22 16:33N 38°41' W 009°50'1515.1
2014-Oct-22 15:33N 38°26' W 009°46'1515.5
2014-Oct-22 14:33N 38°11' W 009°42'1515.4
2014-Oct-22 13:33N 37°56' W 009°37'1017.3
2014-Oct-22 13:00N 37°48' W 009°30'716.2 030 / 121025.4 5.4 0.523.019.121.0
2014-Oct-22 12:33N 37°41' W 009°32'1515.2
2014-Oct-22 11:33N 37°26' W 009°28'1515.1
2014-Oct-22 10:33N 37°11' W 009°25'1515.2
2014-Oct-22 09:33N 36°57' W 009°20'1614.3
2014-Oct-22 08:28N 36°44' W 009°08'2915.1
2014-Oct-22 06:34N 36°36' W 008°34'1615.5
2014-Oct-22 05:33N 36°31' W 008°16'1615.8
2014-Oct-22 04:33N 36°26' W 007°57'11615.9
2014-Oct-21 21:14N 35°58' W 005°37'1014.5
2014-Oct-21 20:32N 36°01' W 005°26'7 5.0
2014-Oct-21 19:04N 36°09' W 005°26'0 0.0
2014-Oct-21 18:31N 36°09' W 005°26'0 0.0
2014-Oct-21 17:33N 36°09' W 005°26'0 0.0
2014-Oct-21 16:33N 36°09' W 005°26'0 0.0
2014-Oct-21 15:27N 36°09' W 005°26'0 0.0
2014-Oct-21 14:32N 36°09' W 005°26'0 0.0
2014-Oct-21 13:31N 36°09' W 005°26'0 0.0
2014-Oct-21 12:31N 36°09' W 005°26'0 0.0
2014-Oct-21 11:31N 36°09' W 005°26'0 0.0
2014-Oct-21 10:28N 36°09' W 005°26'0 0.0
2014-Oct-21 09:31N 36°09' W 005°26'0 0.0
2014-Oct-21 08:07N 36°09' W 005°26'0 0.0
2014-Oct-21 07:10N 36°09' W 005°26'0 0.0
2014-Oct-21 06:28N 36°09' W 005°26'0 0.0
2014-Oct-21 05:18N 36°09' W 005°26'0 0.0
2014-Oct-21 04:33N 36°09' W 005°26'0 0.0
2014-Oct-20 23:33N 36°09' W 005°26'0 0.0
2014-Oct-20 22:29N 36°09' W 005°26'5 4.8
2014-Oct-20 21:33N 36°05' W 005°22'23114.4
2014-Oct-20 05:33N 36°37' W 000°38'6415.9
2014-Oct-20 01:30N 36°45' E 000°41'9215.5
2014-Oct-19 19:33N 36°57' E 002°36'3015.1
2014-Oct-19 17:34N 37°00' E 003°13'3615.5
2014-Oct-19 15:16N 37°05' E 003°57'1115.2
2014-Oct-19 14:33N 37°07' E 004°10'1615.3
2014-Oct-19 13:31N 37°09' E 004°30'5315.8
2014-Oct-19 10:09N 37°16' E 005°36'1615.9
2014-Oct-19 09:10N 37°18' E 005°56'1116.2
2014-Oct-19 08:31N 37°19' E 006°09'7115.9
2014-Oct-19 04:04N 37°28' E 007°37'1115.5
2014-Oct-19 03:20N 37°29' E 007°51'1215.7
2014-Oct-19 02:33N 37°31' E 008°07'1616.0
2014-Oct-19 01:33N 37°33' E 008°27'1715.8
2014-Oct-19 00:28N 37°34' E 008°49'1415.3
2014-Oct-18 23:33N 37°37' E 009°06'1515.3
2014-Oct-18 22:33N 37°39' E 009°25'1515.3
2014-Oct-18 21:33N 37°39' E 009°44'1515.2
2014-Oct-18 20:32N 37°40' E 010°04'1515.0
2014-Oct-18 19:33N 37°38' E 010°22'1515.2
2014-Oct-18 18:33N 37°34' E 010°41'1615.7
2014-Oct-18 17:33N 37°31' E 011°00'1615.7
2014-Oct-18 16:31N 37°24' E 011°19'3215.9
2014-Oct-18 14:32N 37°07' E 011°52'1515.7
2014-Oct-18 13:33N 37°01' E 012°10'1016.9
2014-Oct-18 13:00N 36°54' E 012°18'920.6 1023.2 5.4 25.521.824.0
2014-Oct-18 12:34N 36°56' E 012°29'1616.2
2014-Oct-18 11:33N 36°51' E 012°48'1616.4
2014-Oct-18 10:33N 36°47' E 013°08'1616.2
2014-Oct-18 09:33N 36°42' E 013°27'2015.9
2014-Oct-18 08:18N 36°36' E 013°51'1215.5
2014-Oct-18 07:33N 36°32' E 014°04'1515.3
2014-Oct-18 06:34N 36°28' E 014°23'1515.0
2014-Oct-18 05:33N 36°23' E 014°40'1515.0
2014-Oct-18 04:34N 36°18' E 014°58'5314.9
2014-Oct-18 01:00N 36°00' E 016°00'16715.8 270 / 121011.610.8 1.027.022.625.0
2014-Oct-17 14:26N 35°12' E 019°17'2915.8
2014-Oct-17 12:33N 35°02' E 019°51'2315.7
2014-Oct-17 11:04N 34°55' E 020°19'816.1
2014-Oct-17 10:33N 34°53' E 020°28'1716.4
2014-Oct-17 09:31N 34°48' E 020°48'1616.2
2014-Oct-17 08:33N 34°43' E 021°06'1616.1
2014-Oct-17 07:33N 34°38' E 021°25'11515.2
2014-Oct-17 00:00N 34°00' E 023°36'   310 / 81021.510.8 0.524.021.824.0
Track history (hours):
 
Tides and Currents Weather Stations Pressure Air Temp Water Temp Dewpoint Dewpoint Depression Visibility Wind Speed Wind Dir Waves Ship Positions

Maersk_kyrenia

Last reported at 2014-Oct-25 16:34 UTC. Time now 2014-Oct-25 17:30 UTC.
Position N 51°57' E 001°18'.

Length 300 m; draft 13.6 m.

MMSI: 477733600.

Date/timePositionNaut miles runAvg speedWind from/ knotsBaromVisibWave heightAir tempDewpointWater temp
2014-Oct-25 16:34N 51°57' E 001°18'5 5.4
2014-Oct-25 15:33N 51°56' E 001°26'9 9.0
2014-Oct-25 14:33N 51°52' E 001°40'7 6.7
2014-Oct-25 13:33N 51°48' E 001°48'1010.2
2014-Oct-25 12:33N 51°38' E 001°51'1010.0
2014-Oct-25 11:33N 51°29' E 001°55'1313.0
2014-Oct-25 10:34N 51°18' E 002°08'7 7.4
2014-Oct-25 09:33N 51°13' E 001°59'1110.9
2014-Oct-25 08:33N 51°07' E 001°45'1010.2
2014-Oct-25 07:33N 50°60' E 001°33'1111.3
2014-Oct-25 06:33N 50°50' E 001°25'4213.0
2014-Oct-25 03:21N 50°25' E 000°32'37915.0
2014-Oct-24 02:00N 46°42' W 007°12'35415.0 220 / 81020.0 5.4 0.518.014.618.0
2014-Oct-23 02:22N 41°06' W 009°50'1315.1
2014-Oct-23 01:32N 40°54' W 009°50'1714.8
2014-Oct-23 00:23N 40°37' W 009°50'8714.9
2014-Oct-22 18:33N 39°10' W 009°51'1514.9
2014-Oct-22 17:33N 38°55' W 009°51'1514.5
2014-Oct-22 16:33N 38°41' W 009°50'1515.1
2014-Oct-22 15:33N 38°26' W 009°46'1515.5
2014-Oct-22 14:33N 38°11' W 009°42'1515.4
2014-Oct-22 13:33N 37°56' W 009°37'1017.3
2014-Oct-22 13:00N 37°48' W 009°30'716.2 030 / 121025.4 5.4 0.523.019.121.0
2014-Oct-22 12:33N 37°41' W 009°32'1515.2
2014-Oct-22 11:33N 37°26' W 009°28'1515.1
2014-Oct-22 10:33N 37°11' W 009°25'1515.2
2014-Oct-22 09:33N 36°57' W 009°20'1614.3
2014-Oct-22 08:28N 36°44' W 009°08'2915.1
2014-Oct-22 06:34N 36°36' W 008°34'1615.5
2014-Oct-22 05:33N 36°31' W 008°16'1615.8
2014-Oct-22 04:33N 36°26' W 007°57'11615.9
2014-Oct-21 21:14N 35°58' W 005°37'1014.5
2014-Oct-21 20:32N 36°01' W 005°26'7 5.0
2014-Oct-21 19:04N 36°09' W 005°26'0 0.0
2014-Oct-21 18:31N 36°09' W 005°26'0 0.0
2014-Oct-21 17:33N 36°09' W 005°26'0 0.0
2014-Oct-21 16:33N 36°09' W 005°26'0 0.0
2014-Oct-21 15:27N 36°09' W 005°26'0 0.0
2014-Oct-21 14:32N 36°09' W 005°26'0 0.0
2014-Oct-21 13:31N 36°09' W 005°26'0 0.0
2014-Oct-21 12:31N 36°09' W 005°26'0 0.0
2014-Oct-21 11:31N 36°09' W 005°26'0 0.0
2014-Oct-21 10:28N 36°09' W 005°26'0 0.0
2014-Oct-21 09:31N 36°09' W 005°26'0 0.0
2014-Oct-21 08:07N 36°09' W 005°26'0 0.0
2014-Oct-21 07:10N 36°09' W 005°26'0 0.0
2014-Oct-21 06:28N 36°09' W 005°26'0 0.0
2014-Oct-21 05:18N 36°09' W 005°26'0 0.0
2014-Oct-21 04:33N 36°09' W 005°26'0 0.0
2014-Oct-20 23:33N 36°09' W 005°26'0 0.0
2014-Oct-20 22:29N 36°09' W 005°26'5 4.8
2014-Oct-20 21:33N 36°05' W 005°22'23114.4
2014-Oct-20 05:33N 36°37' W 000°38'6415.9
2014-Oct-20 01:30N 36°45' E 000°41'9215.5
2014-Oct-19 19:33N 36°57' E 002°36'3015.1
2014-Oct-19 17:34N 37°00' E 003°13'3615.5
2014-Oct-19 15:16N 37°05' E 003°57'1115.2
2014-Oct-19 14:33N 37°07' E 004°10'1615.3
2014-Oct-19 13:31N 37°09' E 004°30'5315.8
2014-Oct-19 10:09N 37°16' E 005°36'1615.9
2014-Oct-19 09:10N 37°18' E 005°56'1116.2
2014-Oct-19 08:31N 37°19' E 006°09'7115.9
2014-Oct-19 04:04N 37°28' E 007°37'1115.5
2014-Oct-19 03:20N 37°29' E 007°51'1215.7
2014-Oct-19 02:33N 37°31' E 008°07'1616.0
2014-Oct-19 01:33N 37°33' E 008°27'1715.8
2014-Oct-19 00:28N 37°34' E 008°49'1415.3
2014-Oct-18 23:33N 37°37' E 009°06'1515.3
2014-Oct-18 22:33N 37°39' E 009°25'1515.3
2014-Oct-18 21:33N 37°39' E 009°44'1515.2
2014-Oct-18 20:32N 37°40' E 010°04'1515.0
2014-Oct-18 19:33N 37°38' E 010°22'1515.2
2014-Oct-18 18:33N 37°34' E 010°41'1615.7
2014-Oct-18 17:33N 37°31' E 011°00'1615.7
2014-Oct-18 16:31N 37°24' E 011°19'3215.9
2014-Oct-18 14:32N 37°07' E 011°52'1515.7
2014-Oct-18 13:33N 37°01' E 012°10'1016.9
2014-Oct-18 13:00N 36°54' E 012°18'920.6 1023.2 5.4 25.521.824.0
2014-Oct-18 12:34N 36°56' E 012°29'1616.2
2014-Oct-18 11:33N 36°51' E 012°48'1616.4
2014-Oct-18 10:33N 36°47' E 013°08'1616.2
2014-Oct-18 09:33N 36°42' E 013°27'2015.9
2014-Oct-18 08:18N 36°36' E 013°51'1215.5
2014-Oct-18 07:33N 36°32' E 014°04'1515.3
2014-Oct-18 06:34N 36°28' E 014°23'1515.0
2014-Oct-18 05:33N 36°23' E 014°40'1515.0
2014-Oct-18 04:34N 36°18' E 014°58'5314.9
2014-Oct-18 01:00N 36°00' E 016°00'16715.8 270 / 121011.610.8 1.027.022.625.0
2014-Oct-17 14:26N 35°12' E 019°17'2915.8
2014-Oct-17 12:33N 35°02' E 019°51'2315.7
2014-Oct-17 11:04N 34°55' E 020°19'816.1
2014-Oct-17 10:33N 34°53' E 020°28'1716.4
2014-Oct-17 09:31N 34°48' E 020°48'1616.2
2014-Oct-17 08:33N 34°43' E 021°06'1616.1
2014-Oct-17 07:33N 34°38' E 021°25'11515.2
2014-Oct-17 00:00N 34°00' E 023°36'   310 / 81021.510.8 0.524.021.824.0

Dump ship's entire track history